Time;durP1;ratioP1;P1;durP2;ratioP2;P2;SDS_P1;SDS_P2;PMS_P1;PMS_P2;Temp;Humidity;BMP_temperature;BMP_pressure;BME280_temperature;BME280_humidity;BME280_pressure;Samples;Min_cycle;Max_cycle;Signal;HPM_P1;HPM_P2
2022/08/15 00:00:59;;;;;;;3.97;3.67;;;;;;;22.89;57.21;97150.41;5053604;28;20220;-64
2022/08/15 00:03:29;;;;;;;3.70;3.40;;;;;;;22.87;56.96;97151.66;5051604;28;20223;-63
2022/08/15 00:05:56;;;;;;;3.90;3.60;;;;;;;22.86;56.82;97145.41;5053542;28;20220;-64
2022/08/15 00:08:23;;;;;;;3.93;3.63;;;;;;;22.83;57.68;97151.22;5053285;28;20293;-64
2022/08/15 00:10:50;;;;;;;4.23;3.83;;;;;;;22.61;60.24;97144.34;5053448;28;20216;-63
2022/08/15 00:13:22;;;;;;;4.07;3.67;;;;;;;22.48;64.10;97141.63;5053527;28;20212;-63
2022/08/15 00:15:50;;;;;;;3.93;3.63;;;;;;;22.40;62.74;97144.50;5052945;28;20251;-63
2022/08/15 00:18:17;;;;;;;4.50;4.00;;;;;;;22.31;62.92;97148.38;5053257;28;20234;-63
2022/08/15 00:20:44;;;;;;;5.03;4.00;;;;;;;22.35;61.82;97138.88;5050229;28;20212;-63
2022/08/15 00:23:13;;;;;;;4.33;3.87;;;;;;;22.39;60.68;97137.44;5053186;28;20212;-63
2022/08/15 00:25:41;;;;;;;4.17;3.63;;;;;;;22.43;60.28;97129.81;5052945;28;20216;-63
2022/08/15 00:28:08;;;;;;;4.70;3.73;;;;;;;22.42;60.49;97125.41;5045985;28;20215;-63
2022/08/15 00:30:38;;;;;;;4.00;3.70;;;;;;;22.35;61.36;97130.81;5051214;28;20673;-62
2022/08/15 00:33:06;;;;;;;4.37;3.63;;;;;;;22.21;62.08;97139.88;5052781;28;20212;-63
2022/08/15 00:35:36;;;;;;;4.00;3.70;;;;;;;22.19;63.91;97135.72;5052330;28;20236;-62
2022/08/15 00:38:04;;;;;;;3.67;3.37;;;;;;;22.26;65.23;97133.88;5052434;28;20224;-63
2022/08/15 00:40:31;;;;;;;5.27;3.53;;;;;;;22.37;61.29;97133.31;5053043;28;20535;-63
2022/08/15 00:43:18;;;;;;;4.80;3.60;;;;;;;22.51;59.72;97135.00;5052571;28;20216;-63
2022/08/15 00:45:47;;;;;;;4.00;3.50;;;;;;;22.56;59.08;97133.34;5052858;28;20235;-63
2022/08/15 00:50:58;;;;;;;3.90;3.60;;;;;;;22.46;60.50;97148.25;5052660;28;20473;-63
2022/08/15 00:53:25;;;;;;;3.60;3.30;;;;;;;22.39;61.59;97152.75;5052467;28;20669;-63
2022/08/15 00:55:52;;;;;;;4.17;3.77;;;;;;;22.42;62.31;97163.94;5050725;28;20240;-62
2022/08/15 00:58:20;;;;;;;4.00;3.60;;;;;;;22.44;63.50;97167.28;5052628;28;20250;-62
2022/08/15 01:00:48;;;;;;;4.67;3.83;;;;;;;22.29;65.37;97163.91;5052377;28;20216;-62
2022/08/15 01:03:22;;;;;;;4.80;4.00;;;;;;;21.81;69.41;97172.16;5052602;28;20218;-62
2022/08/15 01:05:53;;;;;;;4.37;3.97;;;;;;;21.30;75.15;97168.94;5052295;28;20216;-62
2022/08/15 01:08:23;;;;;;;4.77;4.30;;;;;;;20.95;77.07;97161.84;5050885;28;20681;-62
2022/08/15 01:10:51;;;;;;;5.17;4.23;;;;;;;20.61;78.13;97158.16;5052548;28;20208;-63
2022/08/15 01:13:18;;;;;;;4.67;4.20;;;;;;;20.42;79.88;97142.69;5052218;28;20242;-63
2022/08/15 01:15:45;;;;;;;4.40;4.00;;;;;;;20.33;80.55;97144.66;5052094;28;20250;-63
2022/08/15 01:18:13;;;;;;;4.90;4.50;;;;;;;20.38;84.25;97139.56;5052496;28;20218;-65
2022/08/15 01:20:42;;;;;;;4.27;3.90;;;;;;;20.39;83.60;97138.53;5051920;28;20257;-62
2022/08/15 01:23:19;;;;;;;6.47;4.23;;;;;;;20.54;83.83;97142.00;5051383;28;20223;-62
2022/08/15 01:25:53;;;;;;;5.53;4.53;;;;;;;20.61;81.91;97136.69;5052441;28;20435;-62
2022/08/15 01:28:25;;;;;;;4.77;4.37;;;;;;;20.65;80.69;97136.09;5051970;28;20230;-62
2022/08/15 01:30:55;;;;;;;4.53;4.13;;;;;;;20.75;81.99;97143.84;5052085;28;20208;-63
2022/08/15 01:33:23;;;;;;;4.60;4.20;;;;;;;20.77;81.84;97148.00;5052262;28;20208;-62
2022/08/15 01:35:51;;;;;;;4.30;4.00;;;;;;;20.81;80.91;97162.72;5050119;28;20242;-65
2022/08/15 01:38:23;;;;;;;4.60;4.20;;;;;;;20.89;80.12;97161.75;5052046;28;20219;-64
2022/08/15 01:40:59;;;;;;;4.70;4.40;;;;;;;20.98;79.51;97166.78;5052126;28;20222;-63
2022/08/15 01:43:31;;;;;;;4.20;3.80;;;;;;;21.08;77.95;97161.94;5051952;28;20695;-62
2022/08/15 01:46:03;;;;;;;4.50;4.10;;;;;;;21.13;77.48;97159.50;5045529;28;20212;-62
2022/08/15 01:48:35;;;;;;;4.20;3.90;;;;;;;21.22;77.67;97157.50;5052617;28;20661;-63
2022/08/15 01:51:04;;;;;;;4.50;4.10;;;;;;;21.32;75.03;97168.72;5056098;28;20212;-63
2022/08/15 01:53:37;;;;;;;4.60;4.20;;;;;;;21.41;72.60;97168.41;5056264;28;20219;-63
2022/08/15 01:56:09;;;;;;;4.40;4.00;;;;;;;21.48;72.76;97163.91;5056093;28;20240;-63
2022/08/15 01:58:37;;;;;;;4.80;4.40;;;;;;;21.56;71.45;97162.88;5055772;28;20239;-64
2022/08/15 02:01:08;;;;;;;4.60;4.20;;;;;;;21.60;69.68;97161.47;5055943;28;20216;-64
2022/08/15 02:03:38;;;;;;;4.70;4.27;;;;;;;21.67;68.98;97159.69;5048099;28;20218;-64
2022/08/15 02:06:09;;;;;;;4.30;3.93;;;;;;;21.69;68.95;97160.34;5055618;28;20692;-64
2022/08/15 02:08:36;;;;;;;4.53;4.13;;;;;;;21.72;69.61;97159.94;5055586;28;20223;-63
2022/08/15 02:11:03;;;;;;;4.13;3.83;;;;;;;21.73;69.43;97161.59;5055674;28;20299;-64
2022/08/15 02:13:31;;;;;;;4.57;4.17;;;;;;;21.72;69.67;97162.63;5054039;28;20220;-63
2022/08/15 02:15:58;;;;;;;4.87;4.47;;;;;;;21.70;69.69;97152.06;5055364;28;20242;-65
2022/08/15 02:18:24;;;;;;;4.30;3.90;;;;;;;21.72;69.04;97155.41;5055466;28;20707;-63
2022/08/15 02:20:50;;;;;;;4.80;4.30;;;;;;;21.71;68.38;97159.09;5055588;28;20224;-63
2022/08/15 02:23:17;;;;;;;4.30;3.97;;;;;;;21.71;68.50;97155.59;5055368;28;20223;-63
2022/08/15 02:25:44;;;;;;;4.00;3.70;;;;;;;21.71;68.41;97160.97;5055223;28;20213;-63
2022/08/15 02:28:10;;;;;;;4.57;4.17;;;;;;;21.70;68.12;97157.44;5055104;28;20590;-63
2022/08/15 02:30:38;;;;;;;4.27;3.87;;;;;;;21.71;67.68;97161.78;5055062;28;20212;-63
2022/08/15 02:33:05;;;;;;;4.50;4.10;;;;;;;21.70;67.92;97162.81;5055172;28;20218;-63
2022/08/15 02:35:32;;;;;;;4.83;4.17;;;;;;;21.71;68.29;97163.66;5054842;28;20224;-63
2022/08/15 02:38:01;;;;;;;4.80;4.30;;;;;;;21.71;68.23;97164.47;5055286;28;20295;-63
2022/08/15 02:40:28;;;;;;;4.40;4.00;;;;;;;21.72;68.60;97166.16;5053810;28;20555;-63
2022/08/15 02:42:56;;;;;;;4.80;4.20;;;;;;;21.66;68.67;97160.69;5047609;28;20224;-63
2022/08/15 02:45:22;;;;;;;4.20;3.80;;;;;;;21.64;69.08;97163.56;5055112;28;20299;-63
2022/08/15 02:47:51;;;;;;;4.60;4.20;;;;;;;21.63;68.96;97161.91;5055037;28;20208;-64
2022/08/15 02:50:19;;;;;;;4.17;3.80;;;;;;;21.63;69.91;97164.59;5054986;28;20309;-63
2022/08/15 02:52:49;;;;;;;4.33;3.93;;;;;;;21.63;70.03;97175.34;5047530;28;20219;-62
2022/08/15 02:55:18;;;;;;;4.07;3.77;;;;;;;21.61;69.98;97169.34;5054992;28;20216;-62
2022/08/15 02:57:45;;;;;;;4.70;4.23;;;;;;;21.62;69.95;97176.38;5054629;28;20247;-63
2022/08/15 03:00:15;;;;;;;4.63;4.13;;;;;;;21.59;69.93;97171.41;5053634;28;20290;-63
2022/08/15 03:02:53;;;;;;;4.30;3.90;;;;;;;21.59;70.39;97171.41;5054666;28;20216;-63
2022/08/15 03:05:20;;;;;;;5.27;4.10;;;;;;;21.60;70.82;97170.38;5052712;28;20277;-64
2022/08/15 03:07:47;;;;;;;4.77;4.27;;;;;;;21.58;70.78;97175.13;5054860;28;20208;-63
2022/08/15 03:10:14;;;;;;;4.50;4.10;;;;;;;21.58;70.89;97180.50;5052671;28;20216;-62
2022/08/15 03:12:53;;;;;;;5.60;4.10;;;;;;;21.52;71.21;97175.91;5054645;28;20315;-62
2022/08/15 03:15:20;;;;;;;4.77;4.30;;;;;;;21.50;71.30;97182.50;5048175;28;20243;-62
2022/08/15 03:17:47;;;;;;;5.00;3.87;;;;;;;21.41;71.66;97186.38;5054226;28;20724;-62
2022/08/15 03:20:15;;;;;;;4.47;3.87;;;;;;;21.38;72.17;97179.53;5054219;28;20302;-62
2022/08/15 03:22:43;;;;;;;4.70;4.30;;;;;;;21.40;72.45;97176.66;5054553;28;20208;-62
2022/08/15 03:25:10;;;;;;;4.13;3.83;;;;;;;21.38;72.57;97184.91;5047788;28;20212;-63
2022/08/15 03:27:37;;;;;;;4.43;3.93;;;;;;;21.36;72.72;97184.28;5054291;28;20216;-62
2022/08/15 03:30:07;;;;;;;6.33;4.00;;;;;;;21.33;73.41;97176.59;5053968;28;20298;-62
2022/08/15 03:32:42;;;;;;;5.80;4.37;;;;;;;21.31;73.64;97167.91;5052312;28;20216;-62
2022/08/15 03:35:10;;;;;;;3.77;3.47;;;;;;;21.30;73.86;97176.16;5053901;28;20215;-62
2022/08/15 03:37:38;;;;;;;4.83;3.90;;;;;;;21.30;74.17;97181.53;5053944;28;20258;-62
2022/08/15 03:40:07;;;;;;;4.10;3.70;;;;;;;21.34;73.93;97186.31;5053726;28;20224;-62
2022/08/15 03:42:34;;;;;;;4.40;3.90;;;;;;;21.40;73.93;97182.03;5053718;28;20212;-62
2022/08/15 03:45:02;;;;;;;4.43;3.53;;;;;;;21.39;73.92;97186.56;5053712;28;20681;-62
2022/08/15 03:47:29;;;;;;;3.70;3.40;;;;;;;21.38;74.21;97184.06;5053934;28;20290;-62
2022/08/15 03:49:55;;;;;;;3.53;3.23;;;;;;;21.41;74.18;97183.69;5053861;28;20220;-62
2022/08/15 03:52:22;;;;;;;3.93;3.60;;;;;;;21.43;73.81;97187.84;5054018;28;20220;-62
2022/08/15 03:54:51;;;;;;;3.33;3.03;;;;;;;21.46;73.33;97186.63;5053564;28;20212;-62
2022/08/15 03:57:18;;;;;;;4.90;3.30;;;;;;;21.47;73.28;97180.22;5051820;28;20733;-62
2022/08/15 03:59:44;;;;;;;3.50;3.20;;;;;;;21.47;73.32;97180.22;5053725;28;20222;-62
2022/08/15 04:02:12;;;;;;;4.10;3.60;;;;;;;21.48;73.48;97180.03;5053606;28;20584;-62
2022/08/15 04:04:40;;;;;;;4.10;2.97;;;;;;;21.49;73.58;97178.16;5053374;28;20216;-63
2022/08/15 04:07:07;;;;;;;4.80;3.60;;;;;;;21.47;73.49;97178.34;5053510;28;20244;-63
2022/08/15 04:09:34;;;;;;;3.67;3.00;;;;;;;21.47;73.81;97178.34;5053759;28;20215;-63
2022/08/15 04:12:03;;;;;;;3.40;3.10;;;;;;;21.48;73.76;97190.78;5053544;28;20239;-63
2022/08/15 04:14:29;;;;;;;3.80;3.20;;;;;;;21.49;73.65;97187.06;5053562;28;20212;-63
2022/08/15 04:16:59;;;;;;;3.83;3.00;;;;;;;21.48;73.78;97189.94;5052941;28;20246;-63
2022/08/15 04:19:25;;;;;;;4.20;3.00;;;;;;;21.39;74.51;97186.56;5053446;28;20216;-63
2022/08/15 04:21:52;;;;;;;3.37;2.70;;;;;;;21.43;74.31;97182.47;5053188;28;20216;-63
2022/08/15 04:24:18;;;;;;;3.17;2.80;;;;;;;21.45;74.97;97187.66;5051383;28;20678;-63
2022/08/15 04:26:45;;;;;;;3.50;3.00;;;;;;;21.27;77.81;97192.69;5053118;28;20212;-63
2022/08/15 04:29:13;;;;;;;3.97;3.23;;;;;;;21.05;79.95;97189.22;5053228;28;20215;-63
2022/08/15 04:31:40;;;;;;;4.67;3.13;;;;;;;20.95;80.36;97194.06;5052806;28;20219;-63
2022/08/15 04:34:07;;;;;;;3.20;2.90;;;;;;;20.97;80.24;97200.06;5052751;28;20219;-63
2022/08/15 04:36:36;;;;;;;3.10;2.80;;;;;;;21.01;79.56;97198.66;5052856;28;20602;-64
2022/08/15 04:39:03;;;;;;;4.17;3.00;;;;;;;21.07;79.14;97200.59;5052709;28;20624;-63
2022/08/15 04:41:32;;;;;;;5.27;3.37;;;;;;;21.12;78.60;97194.63;5052691;28;20211;-63
2022/08/15 04:43:58;;;;;;;4.60;3.07;;;;;;;21.19;78.46;97207.09;5052923;28;20243;-63
2022/08/15 04:46:26;;;;;;;3.00;2.80;;;;;;;21.23;78.46;97204.84;5052681;28;20222;-63
2022/08/15 04:48:52;;;;;;;4.03;3.30;;;;;;;21.24;78.49;97215.41;5052075;28;20220;-63
2022/08/15 04:51:19;;;;;;;4.47;3.00;;;;;;;21.28;78.14;97199.72;5051919;28;20222;-63
2022/08/15 04:53:46;;;;;;;3.50;3.20;;;;;;;21.29;77.97;97207.59;5052855;28;20218;-62
2022/08/15 04:56:12;;;;;;;3.43;3.07;;;;;;;21.29;77.66;97201.38;5052676;28;20289;-64
2022/08/15 04:58:39;;;;;;;3.27;2.97;;;;;;;21.27;77.88;97203.44;5052962;28;20240;-62
2022/08/15 05:01:09;;;;;;;4.27;3.00;;;;;;;21.28;77.46;97199.72;5052637;28;20220;-64
2022/08/15 05:03:38;;;;;;;3.77;2.80;;;;;;;21.26;77.62;97201.75;5052433;28;20703;-62
2022/08/15 05:06:07;;;;;;;2.97;2.70;;;;;;;21.21;77.42;97196.97;5052572;28;20266;-62
2022/08/15 05:08:36;;;;;;;3.37;2.93;;;;;;;21.26;76.85;97202.59;5052507;28;20207;-62
2022/08/15 05:11:06;;;;;;;3.53;2.73;;;;;;;21.19;77.52;97206.25;5052434;28;20232;-62
2022/08/15 05:13:35;;;;;;;3.20;2.90;;;;;;;21.18;77.70;97210.81;5052505;28;20219;-64
2022/08/15 05:16:04;;;;;;;2.83;2.60;;;;;;;21.22;77.76;97206.69;5050833;28;20546;-63
2022/08/15 05:18:32;;;;;;;3.70;3.00;;;;;;;21.26;77.65;97205.28;5052314;28;20240;-63
2022/08/15 05:20:59;;;;;;;4.03;2.80;;;;;;;21.26;77.14;97209.81;5052635;28;20215;-63
2022/08/15 05:23:26;;;;;;;3.40;2.80;;;;;;;21.24;77.35;97210.03;5051732;28;20211;-63
2022/08/15 05:25:55;;;;;;;2.50;2.30;;;;;;;21.23;76.29;97211.06;5052257;28;20656;-63
2022/08/15 05:28:22;;;;;;;3.43;2.40;;;;;;;21.28;76.04;97205.09;5052670;28;20220;-63
2022/08/15 05:30:51;;;;;;;2.60;2.40;;;;;;;21.35;75.94;97206.81;5052549;28;20240;-63
2022/08/15 05:33:20;;;;;;;3.53;2.30;;;;;;;21.43;75.72;97212.03;5052310;28;20680;-63
2022/08/15 05:35:49;;;;;;;3.77;2.63;;;;;;;21.51;74.74;97201.13;5050530;28;20208;-63
2022/08/15 05:38:21;;;;;;;3.07;2.40;;;;;;;21.56;74.32;97195.16;5052332;28;20278;-63
2022/08/15 05:41:00;;;;;;;2.40;2.20;;;;;;;21.54;73.73;97192.69;5051662;28;20258;-63
2022/08/15 05:43:40;;;;;;;3.27;2.13;;;;;;;21.57;73.97;97199.53;5052040;28;20212;-63
2022/08/15 05:46:16;;;;;;;3.00;2.20;;;;;;;21.60;73.93;97189.22;5052069;28;20673;-63
2022/08/15 05:48:49;;;;;;;2.33;2.10;;;;;;;21.61;73.99;97201.63;5045733;28;20578;-63
2022/08/15 05:51:25;;;;;;;2.47;2.27;;;;;;;21.60;73.34;97199.97;5051849;28;20708;-63
2022/08/15 05:54:08;;;;;;;2.50;2.23;;;;;;;21.63;73.25;97204.94;5052272;28;20212;-62
2022/08/15 05:56:46;;;;;;;2.17;1.97;;;;;;;21.66;73.29;97199.19;5045175;28;20212;-62
2022/08/15 05:59:16;;;;;;;3.87;2.20;;;;;;;21.65;73.08;97205.56;5052056;28;20216;-62
2022/08/15 06:01:49;;;;;;;2.53;2.00;;;;;;;21.59;72.87;97198.28;5052177;28;20212;-62
2022/08/15 06:04:22;;;;;;;2.50;1.93;;;;;;;21.50;73.18;97204.84;5052126;28;20579;-62
2022/08/15 06:06:50;;;;;;;2.80;1.97;;;;;;;21.46;73.17;97190.13;5051334;28;20673;-63
2022/08/15 06:09:38;;;;;;;3.00;2.07;;;;;;;21.44;73.24;97199.41;5050957;28;20227;-62
2022/08/15 06:12:09;;;;;;;2.97;2.07;;;;;;;21.39;73.72;97186.56;5051975;28;20221;-62
2022/08/15 06:14:40;;;;;;;2.33;1.90;;;;;;;21.39;74.05;97189.25;5052026;28;20223;-62
2022/08/15 06:17:15;;;;;;;2.37;1.90;;;;;;;21.41;73.93;97189.91;5050287;28;20239;-62
2022/08/15 06:19:47;;;;;;;2.93;2.20;;;;;;;21.47;73.82;97178.34;5051305;28;20243;-62
2022/08/15 06:22:42;;;;;;;2.50;2.20;;;;;;;21.48;73.11;97171.97;5047954;28;20209;-62
2022/08/15 06:25:20;;;;;;;2.40;1.90;;;;;;;21.53;73.08;97176.75;5042825;28;20220;-64
2022/08/15 06:28:02;;;;;;;2.20;2.00;;;;;;;21.64;72.97;97190.47;5050435;28;20216;-64
2022/08/15 06:30:35;;;;;;;2.20;2.00;;;;;;;21.74;72.50;97207.13;5050490;28;20215;-64
2022/08/15 06:33:16;;;;;;;3.43;2.60;;;;;;;21.93;71.87;97219.00;5042647;28;20223;-63
2022/08/15 06:35:50;;;;;;;3.40;2.37;;;;;;;22.01;71.58;97230.44;5051135;28;20214;-64
2022/08/15 06:38:22;;;;;;;2.83;2.30;;;;;;;22.07;71.60;97218.06;5053833;28;20235;-64
2022/08/15 06:40:54;;;;;;;2.97;2.00;;;;;;;21.97;72.67;97215.75;5053574;28;20236;-64
2022/08/15 06:43:21;;;;;;;2.50;2.30;;;;;;;21.86;74.12;97220.84;5053856;28;20222;-64
2022/08/15 06:45:49;;;;;;;3.37;2.10;;;;;;;21.78;74.91;97226.38;5053586;28;20549;-62
2022/08/15 06:48:19;;;;;;;2.10;1.80;;;;;;;21.80;74.12;97219.78;5053586;28;20282;-62
2022/08/15 06:50:48;;;;;;;3.17;2.27;;;;;;;21.79;73.98;97228.88;5046620;28;20214;-62
2022/08/15 06:53:22;;;;;;;2.60;2.10;;;;;;;21.85;73.95;97230.78;5053666;28;20212;-62
2022/08/15 06:55:56;;;;;;;2.30;2.10;;;;;;;21.90;74.08;97233.72;5053541;28;20266;-62
2022/08/15 06:58:37;;;;;;;2.77;2.40;;;;;;;21.93;73.83;97232.47;5051592;28;20252;-62
2022/08/15 07:01:24;;;;;;;2.83;2.50;;;;;;;22.01;73.42;97235.81;5051796;28;20212;-62
2022/08/15 07:04:00;;;;;;;3.47;2.47;;;;;;;22.00;73.63;97228.78;5053496;28;20227;-62
2022/08/15 07:06:33;;;;;;;2.40;2.10;;;;;;;22.07;73.34;97235.03;5045755;28;20227;-62
2022/08/15 07:09:08;;;;;;;2.30;2.00;;;;;;;22.19;73.25;97236.13;5053444;28;20216;-63
2022/08/15 07:11:43;;;;;;;2.17;1.90;;;;;;;22.37;72.16;97224.84;5053091;28;20208;-62
2022/08/15 07:14:30;;;;;;;2.60;2.20;;;;;;;22.59;71.08;97224.53;5052013;28;20814;-63
2022/08/15 07:17:04;;;;;;;2.20;2.00;;;;;;;22.88;69.71;97234.13;5052833;28;20220;-64
2022/08/15 07:19:31;;;;;;;2.60;2.17;;;;;;;23.35;67.94;97231.34;5050372;28;20315;-64
2022/08/15 07:21:57;;;;;;;4.70;2.13;;;;;;;23.67;63.93;97236.72;5050782;28;20220;-64
2022/08/15 07:24:30;;;;;;;2.47;2.17;;;;;;;23.73;63.79;97235.03;5052127;28;20231;-64
2022/08/15 07:27:07;;;;;;;2.37;2.10;;;;;;;23.82;63.52;97228.38;5049655;28;20222;-64
2022/08/15 07:29:43;;;;;;;2.10;1.90;;;;;;;23.92;62.64;97239.63;5039612;28;20277;-64
2022/08/15 07:32:14;;;;;;;2.70;1.90;;;;;;;23.91;62.94;97238.81;5055856;28;20212;-64
2022/08/15 07:34:55;;;;;;;2.57;2.23;;;;;;;23.83;62.56;97247.06;5054977;28;20722;-64
2022/08/15 07:37:23;;;;;;;3.10;2.23;;;;;;;23.81;62.89;97242.91;5052467;28;20692;-64
2022/08/15 07:39:58;;;;;;;2.10;1.87;;;;;;;23.87;63.29;97248.34;5055372;28;20218;-64
2022/08/15 07:42:27;;;;;;;2.87;2.40;;;;;;;23.94;63.37;97248.31;5048667;28;20229;-64
2022/08/15 07:44:57;;;;;;;3.23;2.40;;;;;;;24.00;62.83;97248.31;5051710;28;20303;-64
2022/08/15 07:47:26;;;;;;;2.87;1.90;;;;;;;24.02;63.11;97248.94;5055132;28;20215;-64
2022/08/15 07:50:04;;;;;;;2.53;2.00;;;;;;;24.00;62.56;97248.31;5054692;28;20212;-64
2022/08/15 07:52:30;;;;;;;2.60;2.17;;;;;;;23.92;62.94;97251.25;5055415;28;20214;-64
2022/08/15 07:55:11;;;;;;;2.23;1.93;;;;;;;23.72;62.61;97247.69;5056864;28;20216;-64
2022/08/15 07:57:41;;;;;;;2.27;2.00;;;;;;;23.63;62.63;97248.97;5054187;28;20250;-64
2022/08/15 08:00:16;;;;;;;2.47;2.07;;;;;;;23.71;62.81;97253.31;5054989;28;20218;-65
2022/08/15 08:02:50;;;;;;;2.17;1.97;;;;;;;23.82;62.47;97253.50;5067507;28;20310;-64
2022/08/15 08:05:17;;;;;;;2.33;2.13;;;;;;;24.03;61.79;97252.47;5041494;28;20222;-64
2022/08/15 08:07:46;;;;;;;2.27;1.93;;;;;;;24.21;61.31;97258.84;5051639;28;20216;-64
2022/08/15 08:10:23;;;;;;;3.47;1.87;;;;;;;24.26;59.19;97252.84;5054341;28;20382;-64
2022/08/15 08:13:07;;;;;;;2.90;2.57;;;;;;;24.54;57.74;97258.75;5051775;28;20230;-64
2022/08/15 08:15:45;;;;;;;2.00;1.90;;;;;;;24.73;58.17;97255.16;5055280;28;20222;-64
2022/08/15 08:18:18;;;;;;;2.40;2.10;;;;;;;24.84;57.63;97257.19;5054796;28;20247;-64
2022/08/15 08:20:53;;;;;;;2.37;2.17;;;;;;;24.79;57.60;97265.09;5054933;28;20222;-64
2022/08/15 08:23:24;;;;;;;3.43;2.07;;;;;;;24.72;57.92;97264.31;5054554;28;20212;-63
2022/08/15 08:26:01;;;;;;;2.20;2.07;;;;;;;24.85;57.38;97258.84;5053828;28;20215;-63
2022/08/15 08:28:39;;;;;;;2.50;1.90;;;;;;;25.13;56.60;97254.75;5046321;28;20681;-63
2022/08/15 08:31:17;;;;;;;2.23;1.83;;;;;;;25.38;55.48;97255.63;5041588;28;20226;-63
2022/08/15 08:33:59;;;;;;;2.80;2.07;;;;;;;25.07;55.41;97252.91;5049143;28;20716;-63
2022/08/15 08:36:31;;;;;;;3.13;1.80;;;;;;;24.58;57.27;97255.47;5049231;28;20323;-63
2022/08/15 08:39:07;;;;;;;2.23;1.87;;;;;;;24.41;58.05;97251.53;5049421;28;20242;-63
2022/08/15 08:41:44;;;;;;;2.20;2.00;;;;;;;24.47;58.49;97263.34;5049728;28;20204;-63
2022/08/15 08:44:23;;;;;;;1.90;1.80;;;;;;;24.73;57.20;97253.28;5047673;28;20212;-64
2022/08/15 08:47:28;;;;;;;2.40;2.20;;;;;;;24.99;57.23;97261.25;5050883;28;20266;-65
2022/08/15 08:50:11;;;;;;;3.27;2.50;;;;;;;24.94;57.51;97260.25;5036983;28;20222;-65
2022/08/15 08:52:45;;;;;;;2.13;1.93;;;;;;;24.78;57.89;97264.28;5042079;28;20208;-67
2022/08/15 08:55:18;;;;;;;2.40;2.20;;;;;;;24.57;58.31;97264.56;5050388;28;20208;-64
2022/08/15 08:57:48;;;;;;;3.10;2.80;;;;;;;24.42;59.43;97264.00;5049648;28;20412;-64
2022/08/15 09:00:20;;;;;;;2.97;2.60;;;;;;;24.27;60.64;97266.09;5050346;28;20208;-64
2022/08/15 09:02:50;;;;;;;2.57;2.33;;;;;;;24.26;60.86;97269.84;5049919;28;20216;-64
2022/08/15 09:05:28;;;;;;;3.00;2.20;;;;;;;24.32;60.88;97271.69;5050438;28;20602;-65
2022/08/15 09:07:59;;;;;;;3.47;2.60;;;;;;;24.49;60.43;97274.75;5047885;28;20269;-64
2022/08/15 09:10:32;;;;;;;3.70;2.30;;;;;;;24.53;59.25;97271.44;5049342;28;20689;-64
2022/08/15 09:15:49;;;;;;;2.67;2.47;;;;;;;24.75;60.66;97270.13;5046869;28;20722;-64
2022/08/15 09:18:20;;;;;;;3.30;2.53;;;;;;;24.93;59.05;97272.94;5048906;28;20236;-65
2022/08/15 09:20:48;;;;;;;3.97;2.60;;;;;;;25.10;57.77;97265.97;5050044;28;20216;-65
2022/08/15 09:23:15;;;;;;;2.90;2.37;;;;;;;25.20;57.48;97269.06;5050267;28;20605;-66
2022/08/15 09:25:58;;;;;;;3.10;2.40;;;;;;;25.19;55.32;97274.66;5049496;28;20211;-64
2022/08/15 09:28:31;;;;;;;3.00;2.47;;;;;;;24.93;56.30;97270.22;5049902;28;20220;-65
2022/08/15 09:31:04;;;;;;;3.53;2.93;;;;;;;24.88;56.69;97270.03;5039389;28;20226;-65
2022/08/15 09:33:47;;;;;;;2.53;2.33;;;;;;;24.86;57.35;97260.53;5047682;28;20211;-64
2022/08/15 09:36:31;;;;;;;2.40;2.20;;;;;;;24.78;57.65;97258.88;5050598;28;20508;-64
2022/08/15 09:39:12;;;;;;;4.07;2.10;;;;;;;25.00;56.78;97245.88;5047323;28;20232;-65
2022/08/15 09:41:56;;;;;;;2.93;2.73;;;;;;;25.23;55.56;97252.38;5041497;28;20277;-64
2022/08/15 09:44:37;;;;;;;2.58;2.30;;;;;;;25.40;54.34;97247.28;5050071;28;20223;-63
2022/08/15 09:47:27;;;;;;;2.43;2.23;;;;;;;25.48;54.11;97252.44;5050007;28;20215;-63
2022/08/15 09:50:17;;;;;;;3.50;2.47;;;;;;;25.89;53.05;97245.41;5051391;28;20299;-63
2022/08/15 09:52:54;;;;;;;2.23;2.03;;;;;;;26.33;51.26;97245.16;5048427;28;20216;-63
2022/08/15 09:55:26;;;;;;;2.40;2.20;;;;;;;26.71;50.13;97242.25;5050966;28;20231;-63
2022/08/15 09:57:56;;;;;;;3.03;2.40;;;;;;;26.79;49.67;97245.47;5050831;28;20236;-63
2022/08/15 10:00:31;;;;;;;2.53;2.28;;;;;;;26.82;49.19;97244.19;5050556;28;20230;-63
2022/08/15 10:03:08;;;;;;;2.42;2.20;;;;;;;26.95;48.79;97239.41;5048354;28;20220;-63
2022/08/15 10:05:47;;;;;;;2.30;2.10;;;;;;;26.71;48.63;97242.25;5050827;28;20227;-63
2022/08/15 10:08:15;;;;;;;2.40;2.20;;;;;;;26.32;49.38;97242.69;5048986;28;20227;-64
2022/08/15 10:10:54;;;;;;;2.40;2.20;;;;;;;26.00;50.63;97233.88;5054598;28;20318;-63
2022/08/15 10:13:44;;;;;;;2.60;2.40;;;;;;;25.96;51.24;97240.78;5054443;28;20226;-63
2022/08/15 10:16:43;;;;;;;2.50;2.30;;;;;;;26.06;51.86;97234.84;5054100;28;20695;-64
2022/08/15 10:19:31;;;;;;;2.40;2.20;;;;;;;26.30;49.53;97228.53;5045208;28;20267;-64
2022/08/15 10:22:00;;;;;;;2.20;2.00;;;;;;;26.35;49.46;97224.13;5054123;28;20224;-64
2022/08/15 10:24:32;;;;;;;2.30;2.08;;;;;;;26.49;49.04;97232.91;5053795;28;20216;-64
2022/08/15 10:27:17;;;;;;;2.10;2.00;;;;;;;26.63;48.62;97220.88;5053882;28;20215;-64
2022/08/15 10:29:48;;;;;;;2.67;2.00;;;;;;;26.77;48.65;97219.66;5054203;28;20223;-64
2022/08/15 10:32:35;;;;;;;2.17;1.98;;;;;;;26.76;47.55;97229.66;5054136;28;20228;-64
2022/08/15 10:35:12;;;;;;;3.25;2.10;;;;;;;26.83;48.06;97224.97;5044356;28;20735;-64
2022/08/15 10:37:51;;;;;;;2.40;2.08;;;;;;;26.75;48.25;97211.75;5053770;28;20596;-64
2022/08/15 10:40:39;;;;;;;2.08;1.88;;;;;;;26.57;48.04;97211.75;5051456;28;20220;-64
2022/08/15 10:43:17;;;;;;;2.78;2.00;;;;;;;26.65;48.47;97205.22;5053754;28;20216;-64
2022/08/15 10:45:48;;;;;;;3.50;1.80;;;;;;;26.71;47.89;97215.13;5053763;28;20212;-64
2022/08/15 10:48:28;;;;;;;2.28;2.00;;;;;;;26.76;47.61;97212.56;5053892;28;20212;-64
2022/08/15 10:51:03;;;;;;;1.98;1.77;;;;;;;26.64;48.32;97209.78;5053585;28;20227;-63
2022/08/15 10:53:47;;;;;;;1.90;1.80;;;;;;;26.77;47.74;97203.38;5053763;28;20215;-63
2022/08/15 10:56:16;;;;;;;2.15;1.70;;;;;;;26.91;46.43;97205.69;5052555;28;20258;-63
2022/08/15 10:58:45;;;;;;;2.08;1.88;;;;;;;26.88;46.53;97199.88;5053060;28;20258;-64
2022/08/15 11:01:20;;;;;;;2.13;1.77;;;;;;;26.69;47.09;97199.09;5053020;28;20212;-66
2022/08/15 11:03:51;;;;;;;2.65;1.88;;;;;;;26.57;47.85;97202.81;5053628;28;20289;-64
2022/08/15 11:06:22;;;;;;;2.13;1.92;;;;;;;26.59;47.44;97196.09;5053777;28;20224;-65
2022/08/15 11:08:51;;;;;;;2.65;1.70;;;;;;;26.49;47.39;97195.78;5052854;28;20825;-66
2022/08/15 11:11:21;;;;;;;2.22;1.80;;;;;;;26.57;47.83;97198.22;5053447;28;20220;-64
2022/08/15 11:13:52;;;;;;;2.25;2.05;;;;;;;26.65;46.90;97195.19;5053004;28;20699;-64
2022/08/15 11:16:28;;;;;;;1.77;1.67;;;;;;;26.70;46.24;97192.59;5053226;28;20211;-64
2022/08/15 11:18:58;;;;;;;1.80;1.65;;;;;;;26.68;46.98;97185.75;5052917;28;20614;-64
2022/08/15 11:21:32;;;;;;;3.20;1.77;;;;;;;26.81;46.55;97191.84;5052459;28;20224;-64
2022/08/15 11:24:06;;;;;;;2.38;1.70;;;;;;;26.67;47.09;97187.66;5043464;28;20219;-64
2022/08/15 11:26:35;;;;;;;1.88;1.60;;;;;;;26.81;47.00;97194.56;5052905;28;20216;-64
2022/08/15 11:29:19;;;;;;;1.70;1.60;;;;;;;26.93;46.49;97181.84;5051385;28;20216;-64
2022/08/15 11:31:51;;;;;;;1.80;1.70;;;;;;;27.12;46.08;97186.16;5052697;28;20677;-64
2022/08/15 11:34:24;;;;;;;3.10;1.60;;;;;;;27.05;45.63;97180.00;5052449;28;20212;-64
2022/08/15 11:36:55;;;;;;;2.22;1.83;;;;;;;27.06;46.46;97170.81;5052536;28;20311;-64
2022/08/15 11:39:22;;;;;;;1.90;1.80;;;;;;;27.17;46.06;97175.47;5052513;28;20248;-64
2022/08/15 11:41:53;;;;;;;2.13;1.73;;;;;;;27.22;44.92;97183.75;5052592;28;20208;-64
2022/08/15 11:44:21;;;;;;;2.10;1.90;;;;;;;27.33;45.41;97180.22;5052686;28;20212;-64
2022/08/15 11:46:48;;;;;;;2.25;1.98;;;;;;;27.42;44.23;97176.09;5050003;28;20208;-64
2022/08/15 11:49:28;;;;;;;2.55;1.98;;;;;;;27.42;44.83;97176.09;5052366;28;20218;-65
2022/08/15 11:52:01;;;;;;;3.75;1.75;;;;;;;27.36;44.36;97170.81;5052486;28;20294;-64
2022/08/15 11:54:27;;;;;;;1.92;1.83;;;;;;;27.20;44.80;97177.69;5052220;28;20677;-64
2022/08/15 11:56:56;;;;;;;2.25;1.80;;;;;;;27.08;45.04;97176.00;5050659;28;20242;-64
2022/08/15 11:59:27;;;;;;;2.00;1.90;;;;;;;27.06;44.35;97165.38;5052421;28;20322;-64
2022/08/15 12:02:05;;;;;;;2.72;2.00;;;;;;;27.23;45.54;97166.41;5052017;28;20223;-65